createdAt,value
2018-11-20T00:02:50.557Z,60.31
2018-11-20T00:06:29.695Z,60.52
2018-11-20T00:09:38.244Z,60.50
2018-11-20T00:12:52.946Z,60.40
2018-11-20T00:17:05.696Z,60.54
2018-11-20T00:20:14.467Z,60.20
2018-11-20T00:24:21.068Z,60.34
2018-11-20T00:29:33.514Z,60.47
2018-11-20T00:32:42.346Z,60.43
2018-11-20T00:35:58.019Z,60.17
2018-11-20T00:39:06.875Z,60.43
2018-11-20T00:42:32.773Z,59.97
2018-11-20T00:45:46.376Z,60.38
2018-11-20T00:49:10.068Z,60.45
2018-11-20T00:52:23.745Z,60.63
2018-11-20T00:56:18.267Z,60.52
2018-11-20T00:59:27.546Z,60.34
2018-11-20T01:02:36.495Z,60.66
2018-11-20T01:06:15.583Z,60.70
2018-11-20T01:09:25.221Z,60.41
2018-11-20T01:12:52.440Z,60.42
2018-11-20T01:16:01.277Z,60.79
2018-11-20T01:20:08.517Z,61.01
2018-11-20T01:23:16.203Z,60.83
2018-11-20T01:26:27.147Z,60.64
2018-11-20T01:29:37.713Z,60.63
2018-11-20T01:32:46.681Z,60.63
2018-11-20T01:36:00.338Z,60.67
2018-11-20T01:39:15.557Z,60.92
2018-11-20T01:50:18.110Z,60.84
2018-11-20T01:53:30.922Z,61.07
2018-11-20T01:58:45.996Z,61.05
2018-11-20T02:01:55.143Z,61.30
2018-11-20T02:05:04.092Z,61.13
2018-11-20T02:08:12.906Z,61.37
2018-11-20T02:11:21.873Z,61.32
2018-11-20T02:14:33.541Z,61.10
2018-11-20T02:17:46.546Z,60.77
2018-11-20T02:20:56.382Z,61.11
2018-11-20T02:24:04.054Z,61.24
2018-11-20T02:27:13.796Z,61.57
2018-11-20T02:30:22.507Z,61.24
2018-11-20T02:33:31.200Z,61.45
2018-11-20T02:36:40.067Z,61.55
2018-11-20T02:39:49.005Z,61.31
2018-11-20T02:42:57.661Z,61.32
2018-11-20T02:46:12.474Z,61.45
2018-11-20T02:49:20.257Z,61.60
2018-11-20T02:53:31.857Z,61.65
2018-11-20T02:56:44.530Z,61.92
2018-11-20T02:59:53.278Z,62.02
2018-11-20T03:03:02.263Z,61.96
2018-11-20T03:06:13.935Z,61.89
2018-11-20T03:09:21.938Z,62.06
2018-11-20T03:12:47.763Z,62.01
2018-11-20T03:16:59.667Z,61.86
2018-11-20T03:20:07.300Z,61.86
2018-11-20T03:23:17.991Z,61.97
2018-11-20T03:26:32.688Z,62.14
2018-11-20T03:30:18.905Z,62.27
2018-11-20T03:33:27.968Z,62.45
2018-11-20T03:36:38.684Z,61.99
2018-11-20T03:40:56.367Z,62.36
2018-11-20T03:44:05.943Z,62.22
2018-11-20T03:47:17.599Z,62.61
2018-11-20T03:52:32.713Z,62.63
2018-11-20T03:55:41.386Z,62.34
2018-11-20T03:58:50.214Z,62.41
2018-11-20T04:01:58.834Z,62.28
2018-11-20T04:05:06.569Z,62.43
2018-11-20T04:09:17.301Z,62.32
2018-11-20T04:12:27.959Z,62.41
2018-11-20T04:15:40.777Z,62.31
2018-11-20T04:18:48.398Z,62.25
2018-11-20T04:21:59.045Z,62.33
2018-11-20T04:25:43.325Z,62.43
2018-11-20T04:28:55.431Z,62.92
2018-11-20T04:32:09.060Z,62.84
2018-11-20T04:35:24.762Z,63.08
2018-11-20T04:38:34.366Z,62.74
2018-11-20T04:41:44.030Z,62.70
2018-11-20T04:45:24.107Z,63.00
2018-11-20T04:48:32.637Z,62.89
2018-11-20T04:52:39.204Z,63.19
2018-11-20T04:55:46.848Z,63.29
2018-11-20T04:58:57.373Z,63.35
2018-11-20T05:02:23.128Z,63.22
2018-11-20T05:05:32.248Z,63.25
2018-11-20T05:08:39.993Z,63.40
2018-11-20T05:13:52.828Z,63.50
2018-11-20T05:17:03.364Z,63.40
2018-11-20T05:20:14.989Z,63.39
2018-11-20T05:23:22.672Z,63.85
2018-11-20T05:26:31.263Z,63.82
2018-11-20T05:29:41.940Z,64.26
2018-11-20T05:32:58.559Z,64.02
2018-11-20T05:38:14.029Z,63.98
2018-11-20T05:43:25.391Z,64.02
2018-11-20T05:46:47.953Z,63.68
2018-11-20T05:51:02.651Z,63.76
2018-11-20T05:55:11.449Z,63.79
2018-11-20T05:58:21.139Z,64.07
2018-11-20T06:03:38.022Z,63.95
2018-11-20T06:06:48.575Z,64.01
2018-11-20T06:10:02.056Z,63.59
2018-11-20T06:13:14.890Z,63.48
2018-11-20T06:16:29.036Z,63.58
2018-11-20T06:19:44.894Z,63.68
2018-11-20T06:23:55.581Z,63.95
2018-11-20T06:28:20.827Z,63.92
2018-11-20T06:31:31.561Z,63.04
2018-11-20T06:34:50.196Z,63.32
2018-11-20T06:38:31.378Z,63.46
2018-11-20T06:41:40.044Z,63.18
2018-11-20T06:44:56.947Z,63.44
2018-11-20T06:48:05.744Z,63.56
2018-11-20T06:51:13.387Z,63.71
2018-11-20T06:54:23.805Z,63.33
2018-11-20T06:57:41.441Z,63.55
2018-11-20T07:00:50.442Z,63.35
2018-11-20T07:04:57.014Z,63.30
2018-11-20T07:08:07.657Z,63.43
2018-11-20T07:11:18.191Z,63.65
2018-11-20T07:15:27.320Z,63.25
2018-11-20T07:19:05.425Z,63.49
2018-11-20T07:22:46.327Z,63.44
2018-11-20T07:27:57.735Z,63.39
2018-11-20T07:31:06.584Z,63.74
2018-11-20T07:36:19.013Z,63.38
2018-11-20T07:39:27.671Z,63.24
2018-11-20T07:42:51.599Z,63.55
2018-11-20T07:46:34.697Z,63.51
2018-11-20T07:49:45.295Z,63.46
2018-11-20T07:52:53.991Z,63.61
2018-11-20T07:56:38.230Z,63.47
2018-11-20T07:59:46.657Z,63.55
2018-11-20T08:02:55.691Z,63.95
2018-11-20T08:06:04.608Z,63.46
2018-11-20T08:09:14.719Z,63.24
2018-11-20T08:12:23.539Z,63.78
2018-11-20T08:16:37.163Z,63.89
2018-11-20T08:19:54.050Z,63.91
2018-11-20T08:23:15.022Z,63.97
2018-11-20T08:26:23.785Z,63.80
2018-11-20T08:29:37.389Z,63.52
2018-11-20T08:32:48.984Z,63.68
2018-11-20T08:36:02.770Z,63.86
2018-11-20T08:39:16.635Z,63.63
2018-11-20T08:42:25.471Z,63.70
2018-11-20T08:45:34.332Z,63.88
2018-11-20T08:48:42.892Z,63.75
2018-11-20T08:51:52.381Z,63.77
2018-11-20T08:55:00.734Z,63.91
2018-11-20T08:58:09.551Z,63.89
2018-11-20T09:01:49.524Z,63.98
2018-11-20T09:07:03.472Z,63.55
2018-11-20T09:10:17.189Z,63.80
2018-11-20T09:13:29.979Z,63.82
2018-11-20T09:16:38.725Z,63.73
2018-11-20T09:19:48.252Z,63.64
2018-11-20T09:22:57.257Z,63.90
2018-11-20T09:26:07.929Z,63.69
2018-11-20T09:29:16.741Z,64.14
2018-11-20T09:32:39.497Z,64.17
2018-11-20T09:37:53.258Z,63.52
2018-11-20T09:41:04.991Z,63.89
2018-11-20T09:44:21.193Z,64.06
2018-11-20T09:47:30.203Z,63.99
2018-11-20T09:50:42.743Z,63.67
2018-11-20T09:54:51.566Z,63.47
2018-11-20T09:58:05.073Z,63.60
2018-11-20T10:01:13.939Z,63.57
2018-11-20T10:04:24.570Z,63.53
2018-11-20T10:07:50.464Z,64.07
2018-11-20T10:10:58.093Z,63.89
2018-11-20T10:14:07.018Z,63.71
2018-11-20T10:19:21.747Z,63.72
2018-11-20T10:22:31.462Z,63.59
2018-11-20T10:25:43.047Z,63.49
2018-11-20T10:28:50.612Z,63.07
2018-11-20T10:32:08.495Z,63.05
2018-11-20T10:37:20.345Z,63.33
2018-11-20T10:40:34.214Z,63.29
2018-11-20T10:43:43.064Z,63.12
2018-11-20T10:46:51.898Z,62.80
2018-11-20T10:50:27.963Z,62.65
2018-11-20T10:53:36.758Z,62.76
2018-11-20T10:56:45.553Z,62.85
2018-11-20T10:59:56.116Z,62.94
2018-11-20T11:03:04.714Z,62.44
2018-11-20T11:06:13.283Z,62.67
2018-11-20T11:09:18.937Z,62.83
2018-11-20T11:12:29.775Z,63.17
2018-11-20T11:15:38.390Z,63.14
2018-11-20T11:18:47.126Z,63.11
2018-11-20T11:21:56.072Z,63.01
2018-11-20T11:25:12.842Z,62.34
2018-11-20T11:28:21.834Z,62.53
2018-11-20T11:31:31.433Z,62.53
2018-11-20T11:34:41.958Z,62.94
2018-11-20T11:37:50.622Z,62.78
2018-11-20T11:40:59.349Z,63.26
2018-11-20T11:44:07.869Z,62.86
2018-11-20T11:48:16.321Z,63.26
2018-11-20T11:53:29.542Z,62.86
2018-11-20T11:56:38.721Z,63.13
2018-11-20T12:00:45.366Z,62.96
